PWSweather.com
Personal Weather Stations
Station Observations
PRATO
PratoIT 59100

PratoIT 59100

Lat: 43.8956799, Lon: 11.0845155

Elevation: 164

Station Type: Davis Vantage Vue

http://www.meteoprato.it

High Low Average
Temperature 81.3°F27.4°C 64.5°F18.1°C 71.1°F21.7°C
Dew Point 64.4°F18.0°C 55.7°F13.2°C 60.8°F16.0°C
Winds 6.2 mph 10.0 kmh Calm Calm 1.0 mph ESE1.6 kmh ESE
Wind Gusts 14.0 mph22.5 kmh -- 4.0 mph6.4 kmh
Humidity 90% 44% 71%
Pressure 29.96 in1014.6 mb 29.89 in1012.2 mb -
Precipitation 0.17 in4.3 mm - -
Hour Temp Dew Point Humidity Winds Wind Gusts Pressure Precip Precip Rate Daily Precip Total
12:00 AM 70.6°F21.4°C 61.9°F16.6°C 74% 1.3 mph SW2.1 kmh SW 5.0 mph8.0 kmh 29.94 in1013.9 mb 0.00 in0.0 mm 0.00 in0.0 mm 0.00 in0.0 mm
12:05 AM 70.5°F21.4°C 61.8°F16.6°C 74% 1.2 mph SW1.9 kmh SW 4.0 mph6.4 kmh 29.94 in1013.9 mb 0.00 in0.0 mm 0.00 in0.0 mm 0.00 in0.0 mm
12:10 AM 70.6°F21.4°C 61.9°F16.6°C 74% 1.1 mph SW1.8 kmh SW 4.0 mph6.4 kmh 29.94 in1013.9 mb 0.00 in0.0 mm 0.00 in0.0 mm 0.00 in0.0 mm
12:15 AM 70.6°F21.4°C 61.9°F16.6°C 74% 1.0 mph WSW1.6 kmh WSW 3.0 mph4.8 kmh 29.94 in1013.9 mb 0.00 in0.0 mm 0.00 in0.0 mm 0.00 in0.0 mm
12:20 AM 70.6°F21.4°C 61.9°F16.6°C 74% 0.9 mph WSW1.4 kmh WSW 2.0 mph3.2 kmh 29.94 in1013.9 mb 0.00 in0.0 mm 0.00 in0.0 mm 0.00 in0.0 mm
12:25 AM 70.6°F21.4°C 61.9°F16.6°C 74% 0.8 mph WSW1.3 kmh WSW 4.0 mph6.4 kmh 29.94 in1013.9 mb 0.00 in0.0 mm 0.00 in0.0 mm 0.00 in0.0 mm
12:30 AM 70.6°F21.4°C 61.9°F16.6°C 74% 0.9 mph WSW1.4 kmh WSW 4.0 mph6.4 kmh 29.93 in1013.5 mb 0.00 in0.0 mm 0.00 in0.0 mm 0.00 in0.0 mm
12:35 AM 70.6°F21.4°C 61.9°F16.6°C 74% 0.8 mph WSW1.3 kmh WSW 2.0 mph3.2 kmh 29.94 in1013.9 mb 0.00 in0.0 mm 0.00 in0.0 mm 0.00 in0.0 mm
12:40 AM 70.6°F21.4°C 61.9°F16.6°C 74% 0.4 mph SW0.6 kmh SW 4.0 mph6.4 kmh 29.93 in1013.5 mb 0.00 in0.0 mm 0.00 in0.0 mm 0.00 in0.0 mm
12:45 AM 70.6°F21.4°C 61.9°F16.6°C 74% 0.6 mph SW1.0 kmh SW 4.0 mph6.4 kmh 29.93 in1013.5 mb 0.00 in0.0 mm 0.00 in0.0 mm 0.00 in0.0 mm
12:50 AM 70.6°F21.4°C 61.9°F16.6°C 74% 0.9 mph WSW1.4 kmh WSW 3.0 mph4.8 kmh 29.93 in1013.5 mb 0.00 in0.0 mm 0.00 in0.0 mm 0.00 in0.0 mm
12:55 AM 70.6°F21.4°C 61.9°F16.6°C 74% 0.4 mph NW0.6 kmh NW 1.0 mph1.6 kmh 29.93 in1013.5 mb 0.00 in0.0 mm 0.00 in0.0 mm 0.00 in0.0 mm
01:00 AM 70.6°F21.4°C 61.9°F16.6°C 74% Calm Calm 2.0 mph3.2 kmh 29.93 in1013.5 mb 0.00 in0.0 mm 0.00 in0.0 mm 0.00 in0.0 mm
01:05 AM 70.5°F21.4°C 61.8°F16.6°C 74% Calm Calm 2.0 mph3.2 kmh 29.93 in1013.5 mb 0.00 in0.0 mm 0.00 in0.0 mm 0.00 in0.0 mm
01:10 AM 70.4°F21.3°C 62.1°F16.7°C 75% Calm Calm 2.0 mph3.2 kmh 29.93 in1013.5 mb 0.00 in0.0 mm 0.00 in0.0 mm 0.00 in0.0 mm
01:15 AM 70.4°F21.3°C 62.1°F16.7°C 75% Calm Calm 2.0 mph3.2 kmh 29.93 in1013.5 mb 0.00 in0.0 mm 0.00 in0.0 mm 0.00 in0.0 mm
01:20 AM 70.4°F21.3°C 62.1°F16.7°C 75% 0.2 mph SW0.3 kmh SW 4.0 mph6.4 kmh 29.93 in1013.5 mb 0.00 in0.0 mm 0.00 in0.0 mm 0.00 in0.0 mm
01:25 AM 70.4°F21.3°C 62.1°F16.7°C 75% 1.1 mph SW1.8 kmh SW 6.0 mph9.7 kmh 29.93 in1013.5 mb 0.00 in0.0 mm 0.00 in0.0 mm 0.00 in0.0 mm
01:30 AM 70.5°F21.4°C 62.2°F16.8°C 75% 1.9 mph SW3.1 kmh SW 6.0 mph9.7 kmh 29.93 in1013.5 mb 0.00 in0.0 mm 0.00 in0.0 mm 0.00 in0.0 mm
01:35 AM 70.5°F21.4°C 62.2°F16.8°C 75% 1.8 mph SW2.9 kmh SW 4.0 mph6.4 kmh 29.93 in1013.5 mb 0.00 in0.0 mm 0.00 in0.0 mm 0.00 in0.0 mm
01:40 AM 70.5°F21.4°C 62.2°F16.8°C 75% 1.8 mph SW2.9 kmh SW 4.0 mph6.4 kmh 29.93 in1013.5 mb 0.00 in0.0 mm 0.00 in0.0 mm 0.00 in0.0 mm
01:45 AM 70.5°F21.4°C 62.2°F16.8°C 75% 1.5 mph SW2.4 kmh SW 6.0 mph9.7 kmh 29.93 in1013.5 mb 0.00 in0.0 mm 0.00 in0.0 mm 0.00 in0.0 mm
01:50 AM 70.5°F21.4°C 62.2°F16.8°C 75% 1.0 mph SW1.6 kmh SW 6.0 mph9.7 kmh 29.93 in1013.5 mb 0.00 in0.0 mm 0.00 in0.0 mm 0.00 in0.0 mm
01:55 AM 70.5°F21.4°C 62.2°F16.8°C 75% 1.5 mph SW2.4 kmh SW 4.0 mph6.4 kmh 29.93 in1013.5 mb 0.00 in0.0 mm 0.00 in0.0 mm 0.00 in0.0 mm
02:00 AM 70.6°F21.4°C 62.3°F16.8°C 75% 1.5 mph SW2.4 kmh SW 4.0 mph6.4 kmh 29.93 in1013.5 mb 0.00 in0.0 mm 0.00 in0.0 mm 0.00 in0.0 mm
02:05 AM 70.5°F21.4°C 61.8°F16.6°C 74% 0.6 mph 1.0 kmh -- 29.93 in1013.5 mb 0.00 in0.0 mm 0.00 in0.0 mm 0.00 in0.0 mm
02:10 AM 70.5°F21.4°C 62.2°F16.8°C 75% 0.1 mph 0.2 kmh -- 29.93 in1013.5 mb 0.00 in0.0 mm 0.00 in0.0 mm 0.00 in0.0 mm
02:15 AM 70.5°F21.4°C 62.2°F16.8°C 75% Calm Calm -- 29.93 in1013.5 mb 0.00 in0.0 mm 0.00 in0.0 mm 0.00 in0.0 mm
02:20 AM 70.4°F21.3°C 62.1°F16.7°C 75% Calm Calm 1.0 mph1.6 kmh 29.93 in1013.5 mb 0.00 in0.0 mm 0.00 in0.0 mm 0.00 in0.0 mm
02:25 AM 70.2°F21.2°C 61.9°F16.6°C 75% Calm Calm 1.0 mph1.6 kmh 29.93 in1013.5 mb 0.00 in0.0 mm 0.00 in0.0 mm 0.00 in0.0 mm
02:30 AM 70.0°F21.1°C 62.1°F16.7°C 76% Calm Calm -- 29.92 in1013.2 mb 0.00 in0.0 mm 0.00 in0.0 mm 0.00 in0.0 mm
02:35 AM 69.8°F21.0°C 62.3°F16.8°C 77% Calm Calm -- 29.92 in1013.2 mb 0.00 in0.0 mm 0.00 in0.0 mm 0.00 in0.0 mm
02:40 AM 69.6°F20.9°C 62.1°F16.7°C 77% Calm Calm -- 29.92 in1013.2 mb 0.00 in0.0 mm 0.00 in0.0 mm 0.00 in0.0 mm
02:45 AM 69.5°F20.8°C 62.0°F16.7°C 77% Calm Calm -- 29.93 in1013.5 mb 0.00 in0.0 mm 0.00 in0.0 mm 0.00 in0.0 mm
02:50 AM 69.4°F20.8°C 62.2°F16.8°C 78% Calm Calm -- 29.93 in1013.5 mb 0.01 in0.3 mm 0.12 in3.0 mm 0.01 in0.3 mm
02:55 AM 69.1°F20.6°C 62.7°F17.1°C 80% Calm Calm -- 29.93 in1013.5 mb 0.01 in0.3 mm 0.00 in0.0 mm 0.01 in0.3 mm
03:00 AM 68.9°F20.5°C 62.8°F17.1°C 81% Calm Calm -- 29.92 in1013.2 mb 0.01 in0.3 mm 0.00 in0.0 mm 0.01 in0.3 mm
03:05 AM 68.7°F20.4°C 63.0°F17.2°C 82% Calm Calm 4.0 mph6.4 kmh 29.91 in1012.9 mb 0.02 in0.5 mm 0.12 in3.0 mm 0.02 in0.5 mm
03:10 AM 68.2°F20.1°C 63.2°F17.3°C 84% 0.7 mph NE1.1 kmh NE 6.0 mph9.7 kmh 29.91 in1012.9 mb 0.02 in0.5 mm 0.00 in0.0 mm 0.02 in0.5 mm
03:15 AM 67.7°F19.8°C 63.0°F17.2°C 85% 2.1 mph NE3.4 kmh NE 6.0 mph9.7 kmh 29.91 in1012.9 mb 0.02 in0.5 mm 0.00 in0.0 mm 0.02 in0.5 mm
03:20 AM 67.4°F19.7°C 62.7°F17.1°C 85% 2.7 mph NE4.3 kmh NE 5.0 mph8.0 kmh 29.91 in1012.9 mb 0.02 in0.5 mm 0.00 in0.0 mm 0.02 in0.5 mm
03:25 AM 67.4°F19.7°C 63.1°F17.3°C 86% 1.9 mph NE3.1 kmh NE 3.0 mph4.8 kmh 29.91 in1012.9 mb 0.02 in0.5 mm 0.00 in0.0 mm 0.02 in0.5 mm
03:30 AM 67.3°F19.6°C 63.0°F17.2°C 86% 0.6 mph 1.0 kmh -- 29.91 in1012.9 mb 0.02 in0.5 mm 0.00 in0.0 mm 0.02 in0.5 mm
03:35 AM 67.3°F19.6°C 63.0°F17.2°C 86% Calm Calm -- 29.91 in1012.9 mb 0.02 in0.5 mm 0.00 in0.0 mm 0.02 in0.5 mm
03:40 AM 67.4°F19.7°C 63.1°F17.3°C 86% Calm Calm -- 29.91 in1012.9 mb 0.02 in0.5 mm 0.00 in0.0 mm 0.02 in0.5 mm
03:45 AM 67.4°F19.7°C 63.1°F17.3°C 86% Calm Calm -- 29.91 in1012.9 mb 0.02 in0.5 mm 0.00 in0.0 mm 0.02 in0.5 mm
03:50 AM 67.3°F19.6°C 63.0°F17.2°C 86% 0.1 mph NE0.2 kmh NE 4.0 mph6.4 kmh 29.91 in1012.9 mb 0.01 in0.3 mm 0.00 in0.0 mm 0.02 in0.5 mm
03:55 AM 67.2°F19.6°C 63.2°F17.3°C 87% 0.7 mph NE1.1 kmh NE 4.0 mph6.4 kmh 29.90 in1012.5 mb 0.01 in0.3 mm 0.00 in0.0 mm 0.02 in0.5 mm
04:00 AM 67.0°F19.4°C 63.0°F17.2°C 87% 1.6 mph NE2.6 kmh NE 4.0 mph6.4 kmh 29.90 in1012.5 mb 0.01 in0.3 mm 0.00 in0.0 mm 0.02 in0.5 mm
04:05 AM 66.8°F19.3°C 62.9°F17.2°C 87% 2.0 mph NE3.2 kmh NE 4.0 mph6.4 kmh 29.90 in1012.5 mb 0.00 in0.0 mm 0.00 in0.0 mm 0.02 in0.5 mm
04:10 AM 66.9°F19.4°C 63.2°F17.3°C 88% 1.7 mph NE2.7 kmh NE 4.0 mph6.4 kmh 29.90 in1012.5 mb 0.00 in0.0 mm 0.00 in0.0 mm 0.02 in0.5 mm
04:15 AM 67.0°F19.4°C 63.0°F17.2°C 87% 1.2 mph NE1.9 kmh NE 2.0 mph3.2 kmh 29.90 in1012.5 mb 0.00 in0.0 mm 0.00 in0.0 mm 0.02 in0.5 mm
04:20 AM 67.1°F19.5°C 63.1°F17.3°C 87% 0.6 mph NE1.0 kmh NE 2.0 mph3.2 kmh 29.90 in1012.5 mb 0.00 in0.0 mm 0.00 in0.0 mm 0.02 in0.5 mm
04:25 AM 67.1°F19.5°C 63.4°F17.4°C 88% 0.1 mph 0.2 kmh -- 29.90 in1012.5 mb 0.00 in0.0 mm 0.00 in0.0 mm 0.02 in0.5 mm
04:30 AM 67.1°F19.5°C 63.4°F17.4°C 88% Calm Calm -- 29.90 in1012.5 mb 0.01 in0.3 mm 0.12 in3.0 mm 0.02 in0.5 mm
04:35 AM 67.0°F19.4°C 63.3°F17.4°C 88% Calm Calm 2.0 mph3.2 kmh 29.90 in1012.5 mb 0.01 in0.3 mm 0.00 in0.0 mm 0.02 in0.5 mm
04:40 AM 66.9°F19.4°C 63.2°F17.3°C 88% Calm Calm 2.0 mph3.2 kmh 29.90 in1012.5 mb 0.01 in0.3 mm 0.00 in0.0 mm 0.02 in0.5 mm
04:45 AM 66.8°F19.3°C 63.1°F17.3°C 88% Calm Calm -- 29.89 in1012.2 mb 0.01 in0.3 mm 0.00 in0.0 mm 0.02 in0.5 mm
04:50 AM 66.6°F19.2°C 63.3°F17.4°C 89% Calm Calm -- 29.89 in1012.2 mb 0.01 in0.3 mm 0.00 in0.0 mm 0.02 in0.5 mm
04:55 AM 66.6°F19.2°C 63.3°F17.4°C 89% Calm Calm -- 29.89 in1012.2 mb 0.01 in0.3 mm 0.00 in0.0 mm 0.02 in0.5 mm
05:00 AM 66.7°F19.3°C 63.4°F17.4°C 89% Calm Calm -- 29.89 in1012.2 mb 0.01 in0.3 mm 0.00 in0.0 mm 0.02 in0.5 mm
05:05 AM 66.7°F19.3°C 63.4°F17.4°C 89% Calm Calm -- 29.89 in1012.2 mb 0.01 in0.3 mm 0.00 in0.0 mm 0.02 in0.5 mm
05:10 AM 66.7°F19.3°C 63.7°F17.6°C 90% Calm Calm -- 29.89 in1012.2 mb 0.01 in0.3 mm 0.00 in0.0 mm 0.02 in0.5 mm
05:15 AM 66.5°F19.2°C 63.5°F17.5°C 90% Calm Calm -- 29.90 in1012.5 mb 0.01 in0.3 mm 0.00 in0.0 mm 0.02 in0.5 mm
05:20 AM 66.4°F19.1°C 63.4°F17.4°C 90% Calm Calm -- 29.90 in1012.5 mb 0.01 in0.3 mm 0.00 in0.0 mm 0.02 in0.5 mm
05:25 AM 66.5°F19.2°C 63.5°F17.5°C 90% Calm Calm -- 29.90 in1012.5 mb 0.01 in0.3 mm 0.00 in0.0 mm 0.02 in0.5 mm
05:30 AM 66.5°F19.2°C 63.5°F17.5°C 90% Calm Calm -- 29.90 in1012.5 mb 0.00 in0.0 mm 0.00 in0.0 mm 0.02 in0.5 mm
05:35 AM 66.6°F19.2°C 63.6°F17.6°C 90% Calm Calm -- 29.90 in1012.5 mb 0.00 in0.0 mm 0.00 in0.0 mm 0.02 in0.5 mm
05:40 AM 66.4°F19.1°C 63.4°F17.4°C 90% Calm Calm -- 29.90 in1012.5 mb 0.00 in0.0 mm 0.00 in0.0 mm 0.02 in0.5 mm
05:45 AM 66.3°F19.1°C 63.3°F17.4°C 90% Calm Calm -- 29.90 in1012.5 mb 0.00 in0.0 mm 0.00 in0.0 mm 0.02 in0.5 mm
05:50 AM 66.3°F19.1°C 63.3°F17.4°C 90% Calm Calm -- 29.90 in1012.5 mb 0.00 in0.0 mm 0.00 in0.0 mm 0.02 in0.5 mm
05:55 AM 66.4°F19.1°C 63.4°F17.4°C 90% Calm Calm -- 29.91 in1012.9 mb 0.00 in0.0 mm 0.00 in0.0 mm 0.02 in0.5 mm
06:00 AM 66.5°F19.2°C 63.5°F17.5°C 90% Calm Calm -- 29.91 in1012.9 mb 0.00 in0.0 mm 0.00 in0.0 mm 0.02 in0.5 mm
06:05 AM 66.5°F19.2°C 63.2°F17.3°C 89% Calm Calm -- 29.91 in1012.9 mb 0.00 in0.0 mm 0.00 in0.0 mm 0.02 in0.5 mm
06:10 AM 66.7°F19.3°C 63.7°F17.6°C 90% 0.1 mph WSW0.2 kmh WSW 11.0 mph17.7 kmh 29.92 in1013.2 mb 0.00 in0.0 mm 0.00 in0.0 mm 0.02 in0.5 mm
06:15 AM 66.5°F19.2°C 62.8°F17.1°C 88% 1.0 mph WSW1.6 kmh WSW 11.0 mph17.7 kmh 29.91 in1012.9 mb 0.00 in0.0 mm 0.00 in0.0 mm 0.02 in0.5 mm
06:20 AM 66.1°F18.9°C 61.8°F16.6°C 86% 2.4 mph WSW3.9 kmh WSW 9.0 mph14.5 kmh 29.92 in1013.2 mb 0.00 in0.0 mm 0.00 in0.0 mm 0.02 in0.5 mm
06:25 AM 65.7°F18.7°C 61.1°F16.2°C 85% 2.5 mph WSW4.0 kmh WSW 9.0 mph14.5 kmh 29.92 in1013.2 mb 0.11 in2.8 mm 1.32 in33.5 mm 0.13 in3.3 mm
06:30 AM 65.0°F18.3°C 60.4°F15.8°C 85% 1.8 mph SW2.9 kmh SW 3.0 mph4.8 kmh 29.92 in1013.2 mb 0.12 in3.0 mm 0.12 in3.0 mm 0.14 in3.6 mm
06:35 AM 64.6°F18.1°C 60.3°F15.7°C 86% 1.6 mph SW2.6 kmh SW 3.0 mph4.8 kmh 29.91 in1012.9 mb 0.13 in3.3 mm 0.12 in3.0 mm 0.15 in3.8 mm
06:40 AM 64.6°F18.1°C 60.6°F15.9°C 87% 1.2 mph SW1.9 kmh SW 2.0 mph3.2 kmh 29.91 in1012.9 mb 0.13 in3.3 mm 0.00 in0.0 mm 0.15 in3.8 mm
06:45 AM 64.5°F18.1°C 60.5°F15.8°C 87% 0.4 mph SW0.6 kmh SW 1.0 mph1.6 kmh 29.91 in1012.9 mb 0.13 in3.3 mm 0.00 in0.0 mm 0.15 in3.8 mm
06:50 AM 64.5°F18.1°C 60.9°F16.1°C 88% Calm Calm -- 29.91 in1012.9 mb 0.13 in3.3 mm 0.00 in0.0 mm 0.15 in3.8 mm
06:55 AM 64.5°F18.1°C 60.9°F16.1°C 88% Calm Calm -- 29.91 in1012.9 mb 0.13 in3.3 mm 0.00 in0.0 mm 0.15 in3.8 mm
07:00 AM 64.5°F18.1°C 60.9°F16.1°C 88% Calm Calm -- 29.91 in1012.9 mb 0.13 in3.3 mm 0.00 in0.0 mm 0.15 in3.8 mm
07:05 AM 64.7°F18.2°C 61.1°F16.2°C 88% Calm Calm -- 29.91 in1012.9 mb 0.13 in3.3 mm 0.00 in0.0 mm 0.15 in3.8 mm
07:10 AM 65.0°F18.3°C 61.0°F16.1°C 87% 0.3 mph WSW0.5 kmh WSW 6.0 mph9.7 kmh 29.91 in1012.9 mb 0.13 in3.3 mm 0.00 in0.0 mm 0.15 in3.8 mm
07:15 AM 64.9°F18.3°C 60.9°F16.1°C 87% 1.5 mph WSW2.4 kmh WSW 6.0 mph9.7 kmh 29.91 in1012.9 mb 0.13 in3.3 mm 0.00 in0.0 mm 0.16 in4.1 mm
07:20 AM 65.1°F18.4°C 61.1°F16.2°C 87% 2.4 mph SW3.9 kmh SW 5.0 mph8.0 kmh 29.91 in1012.9 mb 0.13 in3.3 mm 0.00 in0.0 mm 0.17 in4.3 mm
07:25 AM 65.3°F18.5°C 61.3°F16.3°C 87% 1.5 mph WSW2.4 kmh WSW 1.0 mph1.6 kmh 29.91 in1012.9 mb 0.04 in1.0 mm 0.00 in0.0 mm 0.17 in4.3 mm
07:30 AM 65.4°F18.6°C 61.4°F16.3°C 87% 0.3 mph 0.5 kmh -- 29.91 in1012.9 mb 0.03 in0.8 mm 0.00 in0.0 mm 0.17 in4.3 mm
07:35 AM 65.3°F18.5°C 61.3°F16.3°C 87% Calm Calm -- 29.91 in1012.9 mb 0.02 in0.5 mm 0.00 in0.0 mm 0.17 in4.3 mm
07:40 AM 65.5°F18.6°C 61.9°F16.6°C 88% Calm Calm -- 29.91 in1012.9 mb 0.02 in0.5 mm 0.00 in0.0 mm 0.17 in4.3 mm
07:45 AM 65.7°F18.7°C 62.0°F16.7°C 88% Calm Calm -- 29.91 in1012.9 mb 0.02 in0.5 mm 0.00 in0.0 mm 0.17 in4.3 mm
07:50 AM 66.2°F19.0°C 62.5°F16.9°C 88% Calm Calm 3.0 mph4.8 kmh 29.91 in1012.9 mb 0.02 in0.5 mm 0.00 in0.0 mm 0.17 in4.3 mm
07:55 AM 66.7°F19.3°C 63.0°F17.2°C 88% 0.5 mph NE0.8 kmh NE 3.0 mph4.8 kmh 29.91 in1012.9 mb 0.02 in0.5 mm 0.00 in0.0 mm 0.17 in4.3 mm
08:00 AM 67.1°F19.5°C 63.1°F17.3°C 87% 0.9 mph NNE1.4 kmh NNE 3.0 mph4.8 kmh 29.91 in1012.9 mb 0.02 in0.5 mm 0.00 in0.0 mm 0.17 in4.3 mm
08:05 AM 67.8°F19.9°C 63.5°F17.5°C 86% 0.4 mph 0.6 kmh -- 29.91 in1012.9 mb 0.02 in0.5 mm 0.00 in0.0 mm 0.17 in4.3 mm
08:10 AM 68.5°F20.3°C 63.1°F17.3°C 83% Calm Calm 4.0 mph6.4 kmh 29.91 in1012.9 mb 0.02 in0.5 mm 0.00 in0.0 mm 0.17 in4.3 mm
08:15 AM 68.5°F20.3°C 62.8°F17.1°C 82% 0.4 mph NE0.6 kmh NE 4.0 mph6.4 kmh 29.91 in1012.9 mb 0.02 in0.5 mm 0.00 in0.0 mm 0.17 in4.3 mm
08:20 AM 69.0°F20.6°C 62.9°F17.2°C 81% 0.9 mph NE1.4 kmh NE 4.0 mph6.4 kmh 29.91 in1012.9 mb 0.01 in0.3 mm 0.00 in0.0 mm 0.17 in4.3 mm
08:25 AM 70.2°F21.2°C 63.7°F17.6°C 80% 0.8 mph NE1.3 kmh NE 3.0 mph4.8 kmh 29.91 in1012.9 mb 0.00 in0.0 mm 0.00 in0.0 mm 0.17 in4.3 mm
08:30 AM 70.9°F21.6°C 62.6°F17.0°C 75% 0.3 mph 0.5 kmh -- 29.91 in1012.9 mb 0.00 in0.0 mm 0.00 in0.0 mm 0.17 in4.3 mm
08:35 AM 70.9°F21.6°C 61.8°F16.6°C 73% Calm Calm -- 29.91 in1012.9 mb 0.00 in0.0 mm 0.00 in0.0 mm 0.17 in4.3 mm
08:40 AM 71.0°F21.7°C 61.9°F16.6°C 73% Calm Calm -- 29.91 in1012.9 mb 0.00 in0.0 mm 0.00 in0.0 mm 0.17 in4.3 mm
08:45 AM 71.8°F22.1°C 63.4°F17.4°C 75% Calm Calm -- 29.91 in1012.9 mb 0.00 in0.0 mm 0.00 in0.0 mm 0.17 in4.3 mm
08:50 AM 72.3°F22.4°C 63.5°F17.5°C 74% Calm Calm -- 29.91 in1012.9 mb 0.00 in0.0 mm 0.00 in0.0 mm 0.17 in4.3 mm
08:55 AM 72.7°F22.6°C 63.1°F17.3°C 72% Calm Calm -- 29.92 in1013.2 mb 0.00 in0.0 mm 0.00 in0.0 mm 0.17 in4.3 mm
09:00 AM 72.7°F22.6°C 62.8°F17.1°C 71% Calm Calm -- 29.92 in1013.2 mb 0.00 in0.0 mm 0.00 in0.0 mm 0.17 in4.3 mm
09:05 AM 72.8°F22.7°C 62.4°F16.9°C 70% Calm Calm -- 29.91 in1012.9 mb 0.00 in0.0 mm 0.00 in0.0 mm 0.17 in4.3 mm
09:10 AM 73.2°F22.9°C 62.8°F17.1°C 70% Calm Calm -- 29.91 in1012.9 mb 0.00 in0.0 mm 0.00 in0.0 mm 0.17 in4.3 mm
09:15 AM 73.8°F23.2°C 62.2°F16.8°C 67% Calm Calm 2.0 mph3.2 kmh 29.92 in1013.2 mb 0.00 in0.0 mm 0.00 in0.0 mm 0.17 in4.3 mm
09:20 AM 74.0°F23.3°C 61.5°F16.4°C 65% Calm Calm 3.0 mph4.8 kmh 29.92 in1013.2 mb 0.00 in0.0 mm 0.00 in0.0 mm 0.17 in4.3 mm
09:25 AM 74.3°F23.5°C 61.8°F16.6°C 65% 0.5 mph N0.8 kmh N 3.0 mph4.8 kmh 29.93 in1013.5 mb 0.00 in0.0 mm 0.00 in0.0 mm 0.17 in4.3 mm
09:30 AM 74.7°F23.7°C 60.8°F16.0°C 62% 0.7 mph N1.1 kmh N 3.0 mph4.8 kmh 29.92 in1013.2 mb 0.00 in0.0 mm 0.00 in0.0 mm 0.17 in4.3 mm
09:35 AM 75.3°F24.1°C 61.8°F16.6°C 63% 0.2 mph WNW0.3 kmh WNW 2.0 mph3.2 kmh 29.92 in1013.2 mb 0.00 in0.0 mm 0.00 in0.0 mm 0.17 in4.3 mm
09:40 AM 75.8°F24.3°C 61.8°F16.6°C 62% Calm Calm 3.0 mph4.8 kmh 29.93 in1013.5 mb 0.00 in0.0 mm 0.00 in0.0 mm 0.17 in4.3 mm
09:45 AM 75.8°F24.3°C 61.8°F16.6°C 62% Calm Calm 3.0 mph4.8 kmh 29.93 in1013.5 mb 0.00 in0.0 mm 0.00 in0.0 mm 0.17 in4.3 mm
09:50 AM 75.3°F24.1°C 61.8°F16.6°C 63% 0.5 mph SW0.8 kmh SW 4.0 mph6.4 kmh 29.93 in1013.5 mb 0.00 in0.0 mm 0.00 in0.0 mm 0.17 in4.3 mm
09:55 AM 75.2°F24.0°C 62.2°F16.8°C 64% 1.0 mph SW1.6 kmh SW 4.0 mph6.4 kmh 29.93 in1013.5 mb 0.00 in0.0 mm 0.00 in0.0 mm 0.17 in4.3 mm
10:00 AM 74.7°F23.7°C 62.6°F17.0°C 66% 1.0 mph WSW1.6 kmh WSW 4.0 mph6.4 kmh 29.93 in1013.5 mb 0.00 in0.0 mm 0.00 in0.0 mm 0.17 in4.3 mm
10:05 AM 74.8°F23.8°C 62.7°F17.1°C 66% 1.4 mph WSW2.3 kmh WSW 4.0 mph6.4 kmh 29.92 in1013.2 mb 0.00 in0.0 mm 0.00 in0.0 mm 0.17 in4.3 mm
10:10 AM 75.4°F24.1°C 63.7°F17.6°C 67% 1.9 mph WSW3.1 kmh WSW 4.0 mph6.4 kmh 29.93 in1013.5 mb 0.00 in0.0 mm 0.00 in0.0 mm 0.17 in4.3 mm
10:15 AM 76.0°F24.4°C 63.8°F17.7°C 66% 1.7 mph WSW2.7 kmh WSW 4.0 mph6.4 kmh 29.92 in1013.2 mb 0.00 in0.0 mm 0.00 in0.0 mm 0.17 in4.3 mm
10:20 AM 76.5°F24.7°C 63.4°F17.4°C 64% 0.8 mph WSW1.3 kmh WSW 3.0 mph4.8 kmh 29.92 in1013.2 mb 0.00 in0.0 mm 0.00 in0.0 mm 0.17 in4.3 mm
10:25 AM 76.4°F24.7°C 63.8°F17.7°C 65% 0.4 mph WSW0.6 kmh WSW 4.0 mph6.4 kmh 29.93 in1013.5 mb 0.00 in0.0 mm 0.00 in0.0 mm 0.17 in4.3 mm
10:30 AM 76.2°F24.6°C 63.6°F17.6°C 65% 0.8 mph NNW1.3 kmh NNW 5.0 mph8.0 kmh 29.92 in1013.2 mb 0.00 in0.0 mm 0.00 in0.0 mm 0.17 in4.3 mm
10:35 AM 76.3°F24.6°C 62.8°F17.1°C 63% 1.0 mph NNE1.6 kmh NNE 5.0 mph8.0 kmh 29.92 in1013.2 mb 0.00 in0.0 mm 0.00 in0.0 mm 0.17 in4.3 mm
10:40 AM 76.8°F24.9°C 62.3°F16.8°C 61% 1.0 mph WSW1.6 kmh WSW 4.0 mph6.4 kmh 29.92 in1013.2 mb 0.00 in0.0 mm 0.00 in0.0 mm 0.17 in4.3 mm
10:45 AM 76.9°F24.9°C 62.0°F16.7°C 60% 1.3 mph SW2.1 kmh SW 6.0 mph9.7 kmh 29.93 in1013.5 mb 0.00 in0.0 mm 0.00 in0.0 mm 0.17 in4.3 mm
10:50 AM 76.9°F24.9°C 61.5°F16.4°C 59% 2.0 mph SW3.2 kmh SW 7.0 mph11.3 kmh 29.93 in1013.5 mb 0.00 in0.0 mm 0.00 in0.0 mm 0.17 in4.3 mm
10:55 AM 77.2°F25.1°C 60.3°F15.7°C 56% 2.7 mph SW4.3 kmh SW 7.0 mph11.3 kmh 29.92 in1013.2 mb 0.00 in0.0 mm 0.00 in0.0 mm 0.17 in4.3 mm
11:00 AM 77.8°F25.4°C 61.3°F16.3°C 57% 3.5 mph SW5.6 kmh SW 8.0 mph12.9 kmh 29.93 in1013.5 mb 0.00 in0.0 mm 0.00 in0.0 mm 0.17 in4.3 mm
11:05 AM 77.8°F25.4°C 60.3°F15.7°C 55% 4.0 mph SW6.4 kmh SW 8.0 mph12.9 kmh 29.92 in1013.2 mb 0.00 in0.0 mm 0.00 in0.0 mm 0.17 in4.3 mm
11:10 AM 77.9°F25.5°C 61.4°F16.3°C 57% 3.5 mph SW5.6 kmh SW 7.0 mph11.3 kmh 29.92 in1013.2 mb 0.00 in0.0 mm 0.00 in0.0 mm 0.17 in4.3 mm
11:15 AM 77.2°F25.1°C 60.8°F16.0°C 57% 3.0 mph WSW4.8 kmh WSW 9.0 mph14.5 kmh 29.92 in1013.2 mb 0.00 in0.0 mm 0.00 in0.0 mm 0.17 in4.3 mm
11:20 AM 77.2°F25.1°C 62.2°F16.8°C 60% 3.5 mph WSW5.6 kmh WSW 9.0 mph14.5 kmh 29.93 in1013.5 mb 0.00 in0.0 mm 0.00 in0.0 mm 0.17 in4.3 mm
11:25 AM 77.2°F25.1°C 61.3°F16.3°C 58% 3.2 mph WSW5.1 kmh WSW 6.0 mph9.7 kmh 29.92 in1013.2 mb 0.00 in0.0 mm 0.00 in0.0 mm 0.17 in4.3 mm
11:30 AM 76.9°F24.9°C 61.5°F16.4°C 59% 2.3 mph WSW3.7 kmh WSW 6.0 mph9.7 kmh 29.93 in1013.5 mb 0.00 in0.0 mm 0.00 in0.0 mm 0.17 in4.3 mm
11:35 AM 76.6°F24.8°C 60.2°F15.7°C 57% 2.6 mph WSW4.2 kmh WSW 7.0 mph11.3 kmh 29.93 in1013.5 mb 0.00 in0.0 mm 0.00 in0.0 mm 0.17 in4.3 mm
11:40 AM 76.1°F24.5°C 61.2°F16.2°C 60% 3.0 mph WSW4.8 kmh WSW 7.0 mph11.3 kmh 29.92 in1013.2 mb 0.00 in0.0 mm 0.00 in0.0 mm 0.17 in4.3 mm
11:45 AM 75.9°F24.4°C 62.4°F16.9°C 63% 2.6 mph WSW4.2 kmh WSW 8.0 mph12.9 kmh 29.93 in1013.5 mb 0.00 in0.0 mm 0.00 in0.0 mm 0.17 in4.3 mm
11:50 AM 74.9°F23.8°C 61.0°F16.1°C 62% 2.5 mph WSW4.0 kmh WSW 10.0 mph16.1 kmh 29.92 in1013.2 mb 0.00 in0.0 mm 0.00 in0.0 mm 0.17 in4.3 mm
11:55 AM 74.5°F23.6°C 61.5°F16.4°C 64% 4.1 mph WSW6.6 kmh WSW 10.0 mph16.1 kmh 29.92 in1013.2 mb 0.00 in0.0 mm 0.00 in0.0 mm 0.17 in4.3 mm
12:00 PM 74.4°F23.6°C 63.6°F17.6°C 69% 5.1 mph WSW8.2 kmh WSW 7.0 mph11.3 kmh 29.92 in1013.2 mb 0.00 in0.0 mm 0.00 in0.0 mm 0.17 in4.3 mm
12:05 PM 73.9°F23.3°C 63.9°F17.7°C 71% 4.3 mph WSW6.9 kmh WSW 7.0 mph11.3 kmh 29.92 in1013.2 mb 0.00 in0.0 mm 0.00 in0.0 mm 0.17 in4.3 mm
12:10 PM 73.3°F22.9°C 63.7°F17.6°C 72% 3.4 mph WSW5.5 kmh WSW 7.0 mph11.3 kmh 29.92 in1013.2 mb 0.00 in0.0 mm 0.00 in0.0 mm 0.17 in4.3 mm
12:15 PM 73.3°F22.9°C 64.1°F17.8°C 73% 2.7 mph WSW4.3 kmh WSW 5.0 mph8.0 kmh 29.92 in1013.2 mb 0.00 in0.0 mm 0.00 in0.0 mm 0.17 in4.3 mm
12:20 PM 73.7°F23.2°C 63.7°F17.6°C 71% 1.5 mph WSW2.4 kmh WSW 3.0 mph4.8 kmh 29.92 in1013.2 mb 0.00 in0.0 mm 0.00 in0.0 mm 0.17 in4.3 mm
12:25 PM 73.9°F23.3°C 63.5°F17.5°C 70% 0.3 mph 0.5 kmh -- 29.92 in1013.2 mb 0.00 in0.0 mm 0.00 in0.0 mm 0.17 in4.3 mm
12:30 PM 74.4°F23.6°C 64.4°F18.0°C 71% Calm Calm -- 29.91 in1012.9 mb 0.00 in0.0 mm 0.00 in0.0 mm 0.17 in4.3 mm
12:35 PM 74.9°F23.8°C 63.6°F17.6°C 68% Calm Calm -- 29.91 in1012.9 mb 0.00 in0.0 mm 0.00 in0.0 mm 0.17 in4.3 mm
12:40 PM 74.4°F23.6°C 61.4°F16.3°C 64% 0.3 mph NE0.5 kmh NE 5.0 mph8.0 kmh 29.91 in1012.9 mb 0.00 in0.0 mm 0.00 in0.0 mm 0.17 in4.3 mm
12:45 PM 74.8°F23.8°C 62.7°F17.1°C 66% 0.9 mph NNE1.4 kmh NNE 5.0 mph8.0 kmh 29.92 in1013.2 mb 0.00 in0.0 mm 0.00 in0.0 mm 0.17 in4.3 mm
12:50 PM 75.8°F24.3°C 63.2°F17.3°C 65% 1.3 mph W2.1 kmh W 4.0 mph6.4 kmh 29.93 in1013.5 mb 0.00 in0.0 mm 0.00 in0.0 mm 0.17 in4.3 mm
12:55 PM 75.9°F24.4°C 63.3°F17.4°C 65% 1.2 mph WSW1.9 kmh WSW 4.0 mph6.4 kmh 29.93 in1013.5 mb 0.00 in0.0 mm 0.00 in0.0 mm 0.17 in4.3 mm
01:00 PM 75.8°F24.3°C 63.6°F17.6°C 66% 1.2 mph WSW1.9 kmh WSW 6.0 mph9.7 kmh 29.92 in1013.2 mb 0.00 in0.0 mm 0.00 in0.0 mm 0.17 in4.3 mm
01:05 PM 76.1°F24.5°C 63.0°F17.2°C 64% 1.7 mph WSW2.7 kmh WSW 9.0 mph14.5 kmh 29.93 in1013.5 mb 0.00 in0.0 mm 0.00 in0.0 mm 0.17 in4.3 mm
01:10 PM 75.3°F24.1°C 62.3°F16.8°C 64% 2.2 mph WSW3.5 kmh WSW 9.0 mph14.5 kmh 29.93 in1013.5 mb 0.00 in0.0 mm 0.00 in0.0 mm 0.17 in4.3 mm
01:15 PM 74.1°F23.4°C 62.4°F16.9°C 67% 2.4 mph W3.9 kmh W 8.0 mph12.9 kmh 29.93 in1013.5 mb 0.00 in0.0 mm 0.00 in0.0 mm 0.17 in4.3 mm
01:20 PM 73.5°F23.1°C 62.7°F17.1°C 69% 2.3 mph NW3.7 kmh NW 8.0 mph12.9 kmh 29.92 in1013.2 mb 0.00 in0.0 mm 0.00 in0.0 mm 0.17 in4.3 mm
01:25 PM 74.2°F23.4°C 63.4°F17.4°C 69% 2.1 mph N3.4 kmh N 7.0 mph11.3 kmh 29.92 in1013.2 mb 0.00 in0.0 mm 0.00 in0.0 mm 0.17 in4.3 mm
01:30 PM 74.4°F23.6°C 62.3°F16.8°C 66% 2.0 mph NE3.2 kmh NE 6.0 mph9.7 kmh 29.92 in1013.2 mb 0.00 in0.0 mm 0.00 in0.0 mm 0.17 in4.3 mm
01:35 PM 75.7°F24.3°C 63.1°F17.3°C 65% 1.9 mph NE3.1 kmh NE 6.0 mph9.7 kmh 29.91 in1012.9 mb 0.00 in0.0 mm 0.00 in0.0 mm 0.17 in4.3 mm
01:40 PM 77.4°F25.2°C 63.4°F17.4°C 62% 1.6 mph WSW2.6 kmh WSW 5.0 mph8.0 kmh 29.91 in1012.9 mb 0.00 in0.0 mm 0.00 in0.0 mm 0.17 in4.3 mm
01:45 PM 78.6°F25.9°C 62.6°F17.0°C 58% 1.4 mph WSW2.3 kmh WSW 7.0 mph11.3 kmh 29.91 in1012.9 mb 0.00 in0.0 mm 0.00 in0.0 mm 0.17 in4.3 mm
01:50 PM 78.5°F25.8°C 62.0°F16.7°C 57% 1.7 mph WSW2.7 kmh WSW 7.0 mph11.3 kmh 29.91 in1012.9 mb 0.00 in0.0 mm 0.00 in0.0 mm 0.17 in4.3 mm
01:55 PM 78.7°F25.9°C 60.1°F15.6°C 53% 2.3 mph WSW3.7 kmh WSW 7.0 mph11.3 kmh 29.91 in1012.9 mb 0.00 in0.0 mm 0.00 in0.0 mm 0.17 in4.3 mm
02:00 PM 78.5°F25.8°C 60.5°F15.8°C 54% 2.7 mph WSW4.3 kmh WSW 6.0 mph9.7 kmh 29.91 in1012.9 mb 0.00 in0.0 mm 0.00 in0.0 mm 0.17 in4.3 mm
02:05 PM 79.7°F26.5°C 59.4°F15.2°C 50% 2.5 mph WSW4.0 kmh WSW 5.0 mph8.0 kmh 29.91 in1012.9 mb 0.00 in0.0 mm 0.00 in0.0 mm 0.17 in4.3 mm
02:10 PM 80.7°F27.1°C 58.6°F14.8°C 47% 1.6 mph WSW2.6 kmh WSW 6.0 mph9.7 kmh 29.91 in1012.9 mb 0.00 in0.0 mm 0.00 in0.0 mm 0.17 in4.3 mm
02:15 PM 81.3°F27.4°C 57.3°F14.1°C 44% 1.4 mph WSW2.3 kmh WSW 6.0 mph9.7 kmh 29.91 in1012.9 mb 0.00 in0.0 mm 0.00 in0.0 mm 0.17 in4.3 mm
02:20 PM 81.2°F27.3°C 58.5°F14.7°C 46% 1.9 mph WSW3.1 kmh WSW 6.0 mph9.7 kmh 29.90 in1012.5 mb 0.00 in0.0 mm 0.00 in0.0 mm 0.17 in4.3 mm
02:25 PM 80.8°F27.1°C 58.7°F14.8°C 47% 2.0 mph WSW3.2 kmh WSW 6.0 mph9.7 kmh 29.90 in1012.5 mb 0.00 in0.0 mm 0.00 in0.0 mm 0.17 in4.3 mm
02:30 PM 80.2°F26.8°C 59.9°F15.5°C 50% 2.0 mph WSW3.2 kmh WSW 9.0 mph14.5 kmh 29.90 in1012.5 mb 0.00 in0.0 mm 0.00 in0.0 mm 0.17 in4.3 mm
02:35 PM 78.9°F26.1°C 59.8°F15.4°C 52% 2.6 mph WSW4.2 kmh WSW 9.0 mph14.5 kmh 29.90 in1012.5 mb 0.00 in0.0 mm 0.00 in0.0 mm 0.17 in4.3 mm
02:40 PM 78.7°F25.9°C 59.6°F15.3°C 52% 3.6 mph WSW5.8 kmh WSW 8.0 mph12.9 kmh 29.89 in1012.2 mb 0.00 in0.0 mm 0.00 in0.0 mm 0.17 in4.3 mm
02:45 PM 78.1°F25.6°C 59.6°F15.3°C 53% 4.0 mph WSW6.4 kmh WSW 8.0 mph12.9 kmh 29.90 in1012.5 mb 0.00 in0.0 mm 0.00 in0.0 mm 0.17 in4.3 mm
02:50 PM 78.1°F25.6°C 59.6°F15.3°C 53% 3.9 mph WSW6.3 kmh WSW 8.0 mph12.9 kmh 29.89 in1012.2 mb 0.00 in0.0 mm 0.00 in0.0 mm 0.17 in4.3 mm
02:55 PM 77.7°F25.4°C 58.7°F14.8°C 52% 3.3 mph WSW5.3 kmh WSW 6.0 mph9.7 kmh 29.89 in1012.2 mb 0.00 in0.0 mm 0.00 in0.0 mm 0.17 in4.3 mm
03:00 PM 77.5°F25.3°C 59.0°F15.0°C 53% 2.9 mph WSW4.7 kmh WSW 9.0 mph14.5 kmh 29.90 in1012.5 mb 0.00 in0.0 mm 0.00 in0.0 mm 0.17 in4.3 mm
03:05 PM 77.2°F25.1°C 60.3°F15.7°C 56% 3.4 mph WSW5.5 kmh WSW 12.0 mph19.3 kmh 29.90 in1012.5 mb 0.00 in0.0 mm 0.00 in0.0 mm 0.17 in4.3 mm
03:10 PM 77.4°F25.2°C 60.5°F15.8°C 56% 3.9 mph WSW6.3 kmh WSW 12.0 mph19.3 kmh 29.90 in1012.5 mb 0.00 in0.0 mm 0.00 in0.0 mm 0.17 in4.3 mm
03:15 PM 77.2°F25.1°C 60.3°F15.7°C 56% 3.4 mph WSW5.5 kmh WSW 8.0 mph12.9 kmh 29.90 in1012.5 mb 0.00 in0.0 mm 0.00 in0.0 mm 0.17 in4.3 mm
03:20 PM 76.6°F24.8°C 59.7°F15.4°C 56% 2.9 mph WSW4.7 kmh WSW 8.0 mph12.9 kmh 29.91 in1012.9 mb 0.00 in0.0 mm 0.00 in0.0 mm 0.17 in4.3 mm
03:25 PM 76.2°F24.6°C 60.8°F16.0°C 59% 3.3 mph WSW5.3 kmh WSW 8.0 mph12.9 kmh 29.91 in1012.9 mb 0.00 in0.0 mm 0.00 in0.0 mm 0.17 in4.3 mm
03:30 PM 75.7°F24.3°C 60.8°F16.0°C 60% 3.3 mph WSW5.3 kmh WSW 8.0 mph12.9 kmh 29.91 in1012.9 mb 0.00 in0.0 mm 0.00 in0.0 mm 0.17 in4.3 mm
03:35 PM 75.2°F24.0°C 61.7°F16.5°C 63% 3.4 mph WSW5.5 kmh WSW 7.0 mph11.3 kmh 29.91 in1012.9 mb 0.00 in0.0 mm 0.00 in0.0 mm 0.17 in4.3 mm
03:40 PM 75.3°F24.1°C 61.8°F16.6°C 63% 3.9 mph WSW6.3 kmh WSW 7.0 mph11.3 kmh 29.91 in1012.9 mb 0.00 in0.0 mm 0.00 in0.0 mm 0.17 in4.3 mm
03:45 PM 75.3°F24.1°C 61.4°F16.3°C 62% 3.6 mph WSW5.8 kmh WSW 7.0 mph11.3 kmh 29.91 in1012.9 mb 0.00 in0.0 mm 0.00 in0.0 mm 0.17 in4.3 mm
03:50 PM 75.4°F24.1°C 62.4°F16.9°C 64% 2.9 mph WSW4.7 kmh WSW 7.0 mph11.3 kmh 29.91 in1012.9 mb 0.00 in0.0 mm 0.00 in0.0 mm 0.17 in4.3 mm
03:55 PM 75.2°F24.0°C 62.6°F17.0°C 65% 2.8 mph WSW4.5 kmh WSW 7.0 mph11.3 kmh 29.90 in1012.5 mb 0.00 in0.0 mm 0.00 in0.0 mm 0.17 in4.3 mm
04:00 PM 75.3°F24.1°C 61.4°F16.3°C 62% 2.9 mph WSW4.7 kmh WSW 7.0 mph11.3 kmh 29.90 in1012.5 mb 0.00 in0.0 mm 0.00 in0.0 mm 0.17 in4.3 mm
04:05 PM 75.4°F24.1°C 60.1°F15.6°C 59% 2.1 mph WNW3.4 kmh WNW 6.0 mph9.7 kmh 29.90 in1012.5 mb 0.00 in0.0 mm 0.00 in0.0 mm 0.17 in4.3 mm
04:10 PM 75.4°F24.1°C 60.5°F15.8°C 60% 1.2 mph NW1.9 kmh NW 4.0 mph6.4 kmh 29.91 in1012.9 mb 0.00 in0.0 mm 0.00 in0.0 mm 0.17 in4.3 mm
04:15 PM 75.3°F24.1°C 60.0°F15.6°C 59% 1.0 mph W1.6 kmh W 4.0 mph6.4 kmh 29.91 in1012.9 mb 0.00 in0.0 mm 0.00 in0.0 mm 0.17 in4.3 mm
04:20 PM 75.0°F23.9°C 59.2°F15.1°C 58% 1.0 mph WSW1.6 kmh WSW 6.0 mph9.7 kmh 29.91 in1012.9 mb 0.00 in0.0 mm 0.00 in0.0 mm 0.17 in4.3 mm
04:25 PM 75.0°F23.9°C 59.2°F15.1°C 58% 1.0 mph WSW1.6 kmh WSW 6.0 mph9.7 kmh 29.92 in1013.2 mb 0.00 in0.0 mm 0.00 in0.0 mm 0.17 in4.3 mm
04:30 PM 74.9°F23.8°C 58.6°F14.8°C 57% 0.8 mph WSW1.3 kmh WSW 2.0 mph3.2 kmh 29.92 in1013.2 mb 0.00 in0.0 mm 0.00 in0.0 mm 0.17 in4.3 mm
04:35 PM 75.1°F23.9°C 58.3°F14.6°C 56% 0.5 mph SW0.8 kmh SW 7.0 mph11.3 kmh 29.92 in1013.2 mb 0.00 in0.0 mm 0.00 in0.0 mm 0.17 in4.3 mm
04:40 PM 75.0°F23.9°C 57.7°F14.3°C 55% 0.8 mph SW1.3 kmh SW 7.0 mph11.3 kmh 29.91 in1012.9 mb 0.00 in0.0 mm 0.00 in0.0 mm 0.17 in4.3 mm
04:45 PM 74.8°F23.8°C 58.1°F14.5°C 56% 1.5 mph NE2.4 kmh NE 5.0 mph8.0 kmh 29.92 in1013.2 mb 0.00 in0.0 mm 0.00 in0.0 mm 0.17 in4.3 mm
04:50 PM 74.9°F23.8°C 58.6°F14.8°C 57% 1.4 mph SW2.3 kmh SW 5.0 mph8.0 kmh 29.91 in1012.9 mb 0.00 in0.0 mm 0.00 in0.0 mm 0.17 in4.3 mm
04:55 PM 74.7°F23.7°C 58.5°F14.7°C 57% 1.1 mph SW1.8 kmh SW 7.0 mph11.3 kmh 29.92 in1013.2 mb 0.00 in0.0 mm 0.00 in0.0 mm 0.17 in4.3 mm
05:00 PM 74.5°F23.6°C 59.2°F15.1°C 59% 1.6 mph SW2.6 kmh SW 7.0 mph11.3 kmh 29.92 in1013.2 mb 0.00 in0.0 mm 0.00 in0.0 mm 0.17 in4.3 mm
05:05 PM 74.7°F23.7°C 59.4°F15.2°C 59% 1.9 mph SW3.1 kmh SW 4.0 mph6.4 kmh 29.92 in1013.2 mb 0.00 in0.0 mm 0.00 in0.0 mm 0.17 in4.3 mm
05:10 PM 74.4°F23.6°C 59.1°F15.1°C 59% 1.4 mph NE2.3 kmh NE 4.0 mph6.4 kmh 29.92 in1013.2 mb 0.00 in0.0 mm 0.00 in0.0 mm 0.17 in4.3 mm
05:15 PM 73.9°F23.3°C 58.2°F14.6°C 58% 1.3 mph NE2.1 kmh NE 7.0 mph11.3 kmh 29.92 in1013.2 mb 0.00 in0.0 mm 0.00 in0.0 mm 0.17 in4.3 mm
05:20 PM 73.8°F23.2°C 57.1°F13.9°C 56% 2.5 mph NE4.0 kmh NE 14.0 mph22.5 kmh 29.92 in1013.2 mb 0.00 in0.0 mm 0.00 in0.0 mm 0.17 in4.3 mm
05:25 PM 73.7°F23.2°C 57.0°F13.9°C 56% 4.5 mph NE7.2 kmh NE 14.0 mph22.5 kmh 29.92 in1013.2 mb 0.00 in0.0 mm 0.00 in0.0 mm 0.17 in4.3 mm
05:30 PM 73.5°F23.1°C 56.8°F13.8°C 56% 6.2 mph NE10.0 kmh NE 13.0 mph20.9 kmh 29.92 in1013.2 mb 0.00 in0.0 mm 0.00 in0.0 mm 0.17 in4.3 mm
05:35 PM 73.5°F23.1°C 57.3°F14.1°C 57% 6.2 mph NE10.0 kmh NE 13.0 mph20.9 kmh 29.92 in1013.2 mb 0.00 in0.0 mm 0.00 in0.0 mm 0.17 in4.3 mm
05:40 PM 73.2°F22.9°C 57.1°F13.9°C 57% 4.7 mph NE7.6 kmh NE 8.0 mph12.9 kmh 29.92 in1013.2 mb 0.00 in0.0 mm 0.00 in0.0 mm 0.17 in4.3 mm
05:45 PM 73.1°F22.8°C 57.0°F13.9°C 57% 4.3 mph NE6.9 kmh NE 8.0 mph12.9 kmh 29.92 in1013.2 mb 0.00 in0.0 mm 0.00 in0.0 mm 0.17 in4.3 mm
05:50 PM 72.9°F22.7°C 56.3°F13.5°C 56% 4.8 mph NE7.7 kmh NE 10.0 mph16.1 kmh 29.92 in1013.2 mb 0.00 in0.0 mm 0.00 in0.0 mm 0.17 in4.3 mm
05:55 PM 72.9°F22.7°C 55.8°F13.2°C 55% 5.0 mph NE8.0 kmh NE 10.0 mph16.1 kmh 29.93 in1013.5 mb 0.00 in0.0 mm 0.00 in0.0 mm 0.17 in4.3 mm
06:00 PM 72.8°F22.7°C 55.7°F13.2°C 55% 5.0 mph NE8.0 kmh NE 10.0 mph16.1 kmh 29.93 in1013.5 mb 0.00 in0.0 mm 0.00 in0.0 mm 0.17 in4.3 mm
06:05 PM 72.7°F22.6°C 56.6°F13.7°C 57% 4.8 mph NE7.7 kmh NE 10.0 mph16.1 kmh 29.93 in1013.5 mb 0.00 in0.0 mm 0.00 in0.0 mm 0.17 in4.3 mm
06:10 PM 72.5°F22.5°C 55.9°F13.3°C 56% 4.1 mph NE6.6 kmh NE 7.0 mph11.3 kmh 29.93 in1013.5 mb 0.00 in0.0 mm 0.00 in0.0 mm 0.17 in4.3 mm
06:15 PM 72.4°F22.4°C 55.8°F13.2°C 56% 3.5 mph NE5.6 kmh NE 7.0 mph11.3 kmh 29.92 in1013.2 mb 0.00 in0.0 mm 0.00 in0.0 mm 0.17 in4.3 mm
06:20 PM 72.2°F22.3°C 56.1°F13.4°C 57% 3.7 mph NE6.0 kmh NE 7.0 mph11.3 kmh 29.92 in1013.2 mb 0.00 in0.0 mm 0.00 in0.0 mm 0.17 in4.3 mm
06:25 PM 72.0°F22.2°C 56.4°F13.6°C 58% 3.7 mph NE6.0 kmh NE 7.0 mph11.3 kmh 29.92 in1013.2 mb 0.00 in0.0 mm 0.00 in0.0 mm 0.17 in4.3 mm
06:30 PM 71.9°F22.2°C 56.3°F13.5°C 58% 3.2 mph NE5.1 kmh NE 6.0 mph9.7 kmh 29.92 in1013.2 mb 0.00 in0.0 mm 0.00 in0.0 mm 0.17 in4.3 mm
06:35 PM 71.8°F22.1°C 56.7°F13.7°C 59% 3.0 mph NE4.8 kmh NE 6.0 mph9.7 kmh 29.92 in1013.2 mb 0.00 in0.0 mm 0.00 in0.0 mm 0.17 in4.3 mm
06:40 PM 71.6°F22.0°C 57.0°F13.9°C 60% 3.0 mph NE4.8 kmh NE 6.0 mph9.7 kmh 29.92 in1013.2 mb 0.00 in0.0 mm 0.00 in0.0 mm 0.17 in4.3 mm
06:45 PM 71.2°F21.8°C 57.1°F13.9°C 61% 3.2 mph NE5.1 kmh NE 6.0 mph9.7 kmh 29.93 in1013.5 mb 0.00 in0.0 mm 0.00 in0.0 mm 0.17 in4.3 mm
06:50 PM 71.0°F21.7°C 57.3°F14.1°C 62% 3.5 mph NE5.6 kmh NE 8.0 mph12.9 kmh 29.93 in1013.5 mb 0.00 in0.0 mm 0.00 in0.0 mm 0.17 in4.3 mm
06:55 PM 70.8°F21.6°C 57.1°F13.9°C 62% 3.8 mph NE6.1 kmh NE 8.0 mph12.9 kmh 29.93 in1013.5 mb 0.00 in0.0 mm 0.00 in0.0 mm 0.17 in4.3 mm
07:00 PM 70.8°F21.6°C 57.1°F13.9°C 62% 3.6 mph NE5.8 kmh NE 5.0 mph8.0 kmh 29.93 in1013.5 mb 0.00 in0.0 mm 0.00 in0.0 mm 0.17 in4.3 mm
07:05 PM 70.8°F21.6°C 57.6°F14.2°C 63% 2.7 mph NE4.3 kmh NE 7.0 mph11.3 kmh 29.93 in1013.5 mb 0.00 in0.0 mm 0.00 in0.0 mm 0.17 in4.3 mm
07:10 PM 70.8°F21.6°C 58.0°F14.4°C 64% 2.6 mph NE4.2 kmh NE 7.0 mph11.3 kmh 29.93 in1013.5 mb 0.00 in0.0 mm 0.00 in0.0 mm 0.17 in4.3 mm
07:15 PM 70.6°F21.4°C 57.8°F14.3°C 64% 3.0 mph NE4.8 kmh NE 5.0 mph8.0 kmh 29.93 in1013.5 mb 0.00 in0.0 mm 0.00 in0.0 mm 0.17 in4.3 mm
07:20 PM 70.6°F21.4°C 58.3°F14.6°C 65% 3.0 mph NE4.8 kmh NE 6.0 mph9.7 kmh 29.93 in1013.5 mb 0.00 in0.0 mm 0.00 in0.0 mm 0.17 in4.3 mm
07:25 PM 70.5°F21.4°C 58.2°F14.6°C 65% 3.0 mph NE4.8 kmh NE 7.0 mph11.3 kmh 29.93 in1013.5 mb 0.00 in0.0 mm 0.00 in0.0 mm 0.17 in4.3 mm
07:30 PM 70.5°F21.4°C 58.2°F14.6°C 65% 3.4 mph NE5.5 kmh NE 7.0 mph11.3 kmh 29.94 in1013.9 mb 0.00 in0.0 mm 0.00 in0.0 mm 0.17 in4.3 mm
07:35 PM 70.4°F21.3°C 58.1°F14.5°C 65% 3.2 mph NE5.1 kmh NE 5.0 mph8.0 kmh 29.94 in1013.9 mb 0.00 in0.0 mm 0.00 in0.0 mm 0.17 in4.3 mm
07:40 PM 70.1°F21.2°C 58.2°F14.6°C 66% 1.9 mph NNE3.1 kmh NNE 3.0 mph4.8 kmh 29.94 in1013.9 mb 0.00 in0.0 mm 0.00 in0.0 mm 0.17 in4.3 mm
07:45 PM 69.9°F21.1°C 58.0°F14.4°C 66% 1.1 mph NNE1.8 kmh NNE 4.0 mph6.4 kmh 29.94 in1013.9 mb 0.00 in0.0 mm 0.00 in0.0 mm 0.17 in4.3 mm
07:50 PM 69.7°F20.9°C 57.8°F14.3°C 66% 1.2 mph NE1.9 kmh NE 8.0 mph12.9 kmh 29.94 in1013.9 mb 0.00 in0.0 mm 0.00 in0.0 mm 0.17 in4.3 mm
07:55 PM 69.8°F21.0°C 57.9°F14.4°C 66% 2.0 mph NE3.2 kmh NE 8.0 mph12.9 kmh 29.94 in1013.9 mb 0.00 in0.0 mm 0.00 in0.0 mm 0.17 in4.3 mm
08:00 PM 69.8°F21.0°C 57.9°F14.4°C 66% 2.6 mph NNE4.2 kmh NNE 4.0 mph6.4 kmh 29.94 in1013.9 mb 0.00 in0.0 mm 0.00 in0.0 mm 0.17 in4.3 mm
08:05 PM 69.6°F20.9°C 58.2°F14.6°C 67% 1.9 mph NNE3.1 kmh NNE 2.0 mph3.2 kmh 29.95 in1014.2 mb 0.00 in0.0 mm 0.00 in0.0 mm 0.17 in4.3 mm
08:10 PM 69.5°F20.8°C 58.5°F14.7°C 68% 1.3 mph NE2.1 kmh NE 5.0 mph8.0 kmh 29.95 in1014.2 mb 0.00 in0.0 mm 0.00 in0.0 mm 0.17 in4.3 mm
08:15 PM 69.3°F20.7°C 58.3°F14.6°C 68% 1.9 mph NE3.1 kmh NE 5.0 mph8.0 kmh 29.95 in1014.2 mb 0.00 in0.0 mm 0.00 in0.0 mm 0.17 in4.3 mm
08:20 PM 69.2°F20.7°C 58.2°F14.6°C 68% 2.3 mph NE3.7 kmh NE 4.0 mph6.4 kmh 29.95 in1014.2 mb 0.00 in0.0 mm 0.00 in0.0 mm 0.17 in4.3 mm
08:25 PM 69.1°F20.6°C 58.5°F14.7°C 69% 2.0 mph NE3.2 kmh NE 4.0 mph6.4 kmh 29.95 in1014.2 mb 0.00 in0.0 mm 0.00 in0.0 mm 0.17 in4.3 mm
08:30 PM 68.9°F20.5°C 58.7°F14.8°C 70% 1.3 mph NNE2.1 kmh NNE 3.0 mph4.8 kmh 29.95 in1014.2 mb 0.00 in0.0 mm 0.00 in0.0 mm 0.17 in4.3 mm
08:35 PM 68.7°F20.4°C 58.5°F14.7°C 70% 0.4 mph NNE0.6 kmh NNE 3.0 mph4.8 kmh 29.95 in1014.2 mb 0.00 in0.0 mm 0.00 in0.0 mm 0.17 in4.3 mm
08:40 PM 68.4°F20.2°C 58.6°F14.8°C 71% 0.5 mph NNE0.8 kmh NNE 3.0 mph4.8 kmh 29.95 in1014.2 mb 0.00 in0.0 mm 0.00 in0.0 mm 0.17 in4.3 mm
08:45 PM 68.5°F20.3°C 58.7°F14.8°C 71% 0.6 mph NE1.0 kmh NE 5.0 mph8.0 kmh 29.95 in1014.2 mb 0.00 in0.0 mm 0.00 in0.0 mm 0.17 in4.3 mm
08:50 PM 68.8°F20.4°C 58.6°F14.8°C 70% 0.6 mph NE1.0 kmh NE 7.0 mph11.3 kmh 29.95 in1014.2 mb 0.00 in0.0 mm 0.00 in0.0 mm 0.17 in4.3 mm
08:55 PM 68.8°F20.4°C 58.6°F14.8°C 70% 1.8 mph NE2.9 kmh NE 7.0 mph11.3 kmh 29.95 in1014.2 mb 0.00 in0.0 mm 0.00 in0.0 mm 0.17 in4.3 mm
09:00 PM 68.8°F20.4°C 58.6°F14.8°C 70% 2.4 mph NE3.9 kmh NE 4.0 mph6.4 kmh 29.95 in1014.2 mb 0.00 in0.0 mm 0.00 in0.0 mm 0.17 in4.3 mm
09:05 PM 68.8°F20.4°C 58.6°F14.8°C 70% 1.6 mph NE2.6 kmh NE 3.0 mph4.8 kmh 29.95 in1014.2 mb 0.00 in0.0 mm 0.00 in0.0 mm 0.17 in4.3 mm
09:10 PM 68.3°F20.2°C 58.9°F14.9°C 72% 1.3 mph NE2.1 kmh NE 4.0 mph6.4 kmh 29.96 in1014.6 mb 0.00 in0.0 mm 0.00 in0.0 mm 0.17 in4.3 mm
09:15 PM 67.9°F19.9°C 58.9°F14.9°C 73% 1.5 mph NE2.4 kmh NE 4.0 mph6.4 kmh 29.95 in1014.2 mb 0.00 in0.0 mm 0.00 in0.0 mm 0.17 in4.3 mm
09:20 PM 67.8°F19.9°C 58.8°F14.9°C 73% 0.9 mph 1.4 kmh -- 29.96 in1014.6 mb 0.00 in0.0 mm 0.00 in0.0 mm 0.17 in4.3 mm
09:25 PM 67.5°F19.7°C 59.3°F15.2°C 75% 0.2 mph 0.3 kmh -- 29.95 in1014.2 mb 0.00 in0.0 mm 0.00 in0.0 mm 0.17 in4.3 mm
09:30 PM 67.6°F19.8°C 60.5°F15.8°C 78% Calm Calm -- 29.95 in1014.2 mb 0.00 in0.0 mm 0.00 in0.0 mm 0.17 in4.3 mm
09:35 PM 67.4°F19.7°C 60.7°F15.9°C 79% Calm Calm -- 29.95 in1014.2 mb 0.00 in0.0 mm 0.00 in0.0 mm 0.17 in4.3 mm
09:40 PM 67.2°F19.6°C 60.5°F15.8°C 79% Calm Calm -- 29.95 in1014.2 mb 0.00 in0.0 mm 0.00 in0.0 mm 0.17 in4.3 mm
09:45 PM 67.1°F19.5°C 60.4°F15.8°C 79% Calm Calm -- 29.95 in1014.2 mb 0.00 in0.0 mm 0.00 in0.0 mm 0.17 in4.3 mm
09:50 PM 66.9°F19.4°C 60.2°F15.7°C 79% Calm Calm -- 29.95 in1014.2 mb 0.00 in0.0 mm 0.00 in0.0 mm 0.17 in4.3 mm
09:55 PM 66.7°F19.3°C 59.6°F15.3°C 78% Calm Calm -- 29.95 in1014.2 mb 0.00 in0.0 mm 0.00 in0.0 mm 0.17 in4.3 mm
10:00 PM 66.5°F19.2°C 59.1°F15.1°C 77% 0.1 mph NNE0.2 kmh NNE 3.0 mph4.8 kmh 29.95 in1014.2 mb 0.00 in0.0 mm 0.00 in0.0 mm 0.17 in4.3 mm
10:05 PM 66.4°F19.1°C 59.0°F15.0°C 77% 0.6 mph NE1.0 kmh NE 4.0 mph6.4 kmh 29.95 in1014.2 mb 0.00 in0.0 mm 0.00 in0.0 mm 0.17 in4.3 mm
10:10 PM 66.4°F19.1°C 59.0°F15.0°C 77% 1.0 mph NE1.6 kmh NE 4.0 mph6.4 kmh 29.95 in1014.2 mb 0.00 in0.0 mm 0.00 in0.0 mm 0.17 in4.3 mm
10:15 PM 66.6°F19.2°C 58.8°F14.9°C 76% 0.7 mph NNE1.1 kmh NNE 2.0 mph3.2 kmh 29.95 in1014.2 mb 0.00 in0.0 mm 0.00 in0.0 mm 0.17 in4.3 mm
10:20 PM 66.5°F19.2°C 58.7°F14.8°C 76% 0.4 mph NE0.6 kmh NE 4.0 mph6.4 kmh 29.96 in1014.6 mb 0.00 in0.0 mm 0.00 in0.0 mm 0.17 in4.3 mm
10:25 PM 66.2°F19.0°C 58.4°F14.7°C 76% 1.0 mph NE1.6 kmh NE 4.0 mph6.4 kmh 29.96 in1014.6 mb 0.00 in0.0 mm 0.00 in0.0 mm 0.17 in4.3 mm
10:30 PM 66.1°F18.9°C 58.3°F14.6°C 76% 1.8 mph NE2.9 kmh NE 5.0 mph8.0 kmh 29.96 in1014.6 mb 0.00 in0.0 mm 0.00 in0.0 mm 0.17 in4.3 mm
10:35 PM 66.1°F18.9°C 58.3°F14.6°C 76% 2.0 mph NE3.2 kmh NE 5.0 mph8.0 kmh 29.95 in1014.2 mb 0.00 in0.0 mm 0.00 in0.0 mm 0.17 in4.3 mm
10:40 PM 66.2°F19.0°C 58.4°F14.7°C 76% 1.7 mph NE2.7 kmh NE 4.0 mph6.4 kmh 29.96 in1014.6 mb 0.00 in0.0 mm 0.00 in0.0 mm 0.17 in4.3 mm
10:45 PM 66.3°F19.1°C 58.1°F14.5°C 75% 1.6 mph NE2.6 kmh NE 4.0 mph6.4 kmh 29.95 in1014.2 mb 0.00 in0.0 mm 0.00 in0.0 mm 0.17 in4.3 mm
10:50 PM 66.5°F19.2°C 58.0°F14.4°C 74% 1.9 mph NE3.1 kmh NE 2.0 mph3.2 kmh 29.96 in1014.6 mb 0.00 in0.0 mm 0.00 in0.0 mm 0.17 in4.3 mm
10:55 PM 66.7°F19.3°C 58.1°F14.5°C 74% 1.5 mph NE2.4 kmh NE 2.0 mph3.2 kmh 29.96 in1014.6 mb 0.00 in0.0 mm 0.00 in0.0 mm 0.17 in4.3 mm
11:00 PM 66.6°F19.2°C 58.1°F14.5°C 74% 0.9 mph NE1.4 kmh NE 2.0 mph3.2 kmh 29.95 in1014.2 mb 0.00 in0.0 mm 0.00 in0.0 mm 0.16 in4.1 mm
11:05 PM 66.2°F19.0°C 58.0°F14.4°C 75% 0.4 mph NE0.6 kmh NE 1.0 mph1.6 kmh 29.95 in1014.2 mb 0.00 in0.0 mm 0.00 in0.0 mm 0.16 in4.1 mm
11:10 PM 65.9°F18.8°C 58.1°F14.5°C 76% Calm Calm 1.0 mph1.6 kmh 29.96 in1014.6 mb 0.00 in0.0 mm 0.00 in0.0 mm 0.16 in4.1 mm
11:15 PM 65.8°F18.8°C 58.0°F14.4°C 76% Calm Calm 1.0 mph1.6 kmh 29.96 in1014.6 mb 0.00 in0.0 mm 0.00 in0.0 mm 0.16 in4.1 mm
11:20 PM 65.8°F18.8°C 58.4°F14.7°C 77% Calm Calm -- 29.95 in1014.2 mb 0.00 in0.0 mm 0.00 in0.0 mm 0.16 in4.1 mm
11:25 PM 65.8°F18.8°C 59.1°F15.1°C 79% Calm Calm -- 29.95 in1014.2 mb 0.00 in0.0 mm 0.00 in0.0 mm 0.16 in4.1 mm
11:30 PM 65.6°F18.7°C 59.3°F15.2°C 80% Calm Calm -- 29.95 in1014.2 mb 0.00 in0.0 mm 0.00 in0.0 mm 0.16 in4.1 mm
11:35 PM 65.4°F18.6°C 59.1°F15.1°C 80% Calm Calm -- 29.95 in1014.2 mb 0.00 in0.0 mm 0.00 in0.0 mm 0.16 in4.1 mm
11:40 PM 65.3°F18.5°C 59.3°F15.2°C 81% Calm Calm -- 29.96 in1014.6 mb 0.00 in0.0 mm 0.00 in0.0 mm 0.16 in4.1 mm
11:45 PM 65.2°F18.4°C 59.2°F15.1°C 81% Calm Calm -- 29.96 in1014.6 mb 0.00 in0.0 mm 0.00 in0.0 mm 0.16 in4.1 mm
11:50 PM 65.0°F18.3°C 59.4°F15.2°C 82% 0.2 mph WSW0.3 kmh WSW 4.0 mph6.4 kmh 29.96 in1014.6 mb 0.00 in0.0 mm 0.00 in0.0 mm 0.16 in4.1 mm
11:55 PM 64.9°F18.3°C 59.6°F15.3°C 83% 1.0 mph SW1.6 kmh SW 5.0 mph8.0 kmh 29.96 in1014.6 mb 0.00 in0.0 mm 0.00 in0.0 mm 0.16 in4.1 mm